This is the latest recevied weather packets stored in our database for station/object BM1CCR-13. If no packets are shown the sender has not sent any weather packets the latest 10 day(s).
| Time | Temp. | Humidity | Pressure | Rain* | Wind** | Luminosity | Snow |
|---|---|---|---|---|---|---|---|
| 1777695272 | 30° C | 56% | 1000.9 hPa | 0 mm | - | - | - |
| 1777695256 | 30° C | 56% | 1000.8 hPa | 0 mm | - | - | - |
| 1777694957 | 28.89° C | 57% | 1001 hPa | 0 mm | - | - | - |
| 1777694658 | 28.89° C | 55% | 1001 hPa | 0 mm | - | - | - |
| 1777694371 | 30.56° C | 51% | 1001.1 hPa | 0 mm | - | - | - |
| 1777694356 | 30.56° C | 50% | 1001.1 hPa | 0 mm | - | - | - |
| 1777694057 | 31.67° C | 45% | 1001.1 hPa | 0 mm | - | - | - |
| 1777693756 | 31.67° C | 45% | 1001.1 hPa | 0 mm | - | - | - |
| 1777693456 | 31.67° C | 44% | 1001.1 hPa | 0 mm | - | - | - |
| 1777693170 | 30.56° C | 47% | 1001.1 hPa | 0 mm | - | - | - |
| 1777693156 | 30.56° C | 47% | 1001.2 hPa | 0 mm | - | - | - |
| 1777692856 | 30.56° C | 47% | 1001.2 hPa | 0 mm | - | - | - |
| 1777692570 | 30.56° C | 48% | 1001.2 hPa | 0 mm | - | - | - |
| 1777692556 | 30.56° C | 48% | 1001.1 hPa | 0 mm | - | - | - |
| 1777692269 | 30.56° C | 49% | 1001.2 hPa | 0 mm | - | - | - |
| 1777692257 | 30.56° C | 49% | 1001.3 hPa | 0 mm | - | - | - |
| 1777691969 | 30.56° C | 50% | 1001.2 hPa | 0 mm | - | - | - |
| 1777691957 | 30.56° C | 50% | 1001.4 hPa | 0 mm | - | - | - |
| 1777691656 | 30° C | 49% | 1001.2 hPa | 0 mm | - | - | - |
| 1777691370 | 30° C | 50% | 1001.4 hPa | 0 mm | - | - | - |
| 1777691356 | 30° C | 50% | 1001.5 hPa | 0 mm | - | - | - |
| 1777691057 | 30° C | 50% | 1001.4 hPa | 0 mm | - | - | - |
| 1777690768 | 28.89° C | 50% | 1001.4 hPa | 0 mm | - | - | - |
| 1777690756 | 28.89° C | 50% | 1001.5 hPa | 0 mm | - | - | - |
| 1777690468 | 30° C | 50% | 1001.4 hPa | 0 mm | - | - | - |
* Rain latest hour (hover to see other rain measurements)
** Current wind speed in m/s (hover to see current wind gust speed)